ADDS METAR Data INFO
IDs: Format: Raw Decoded Include TAF

Data at: 1150 UTC 23 Jun 2018

KNEW 231053Z AUTO 22007KT 10SM CLR 27/24 A2993 RMK AO2 SLP129 T02670244
KNEW 230953Z AUTO 23008KT 10SM CLR 27/24 A2992 RMK AO2 SLP125 T02670239
KNEW 230853Z AUTO 22011KT 10SM CLR 27/24 A2991 RMK AO2 SLP121 T02720239 53002
KNEW 230753Z AUTO 21009KT 10SM CLR 27/24 A2991 RMK AO2 SLP121 T02720239
KNEW 230653Z AUTO 22009KT 10SM CLR 27/24 A2990 RMK AO2 SLP119 T02720239
KNEW 230553Z AUTO 22010KT 10SM CLR 27/24 A2990 RMK AO2 SLP119 T02720239 10311 20272 403330267 55000
KNEW 230453Z AUTO 22011KT 10SM CLR 28/23 A2990 RMK AO2 SLP118 T02780233
KNEW 230353Z AUTO 23011KT 10SM CLR 28/23 A2990 RMK AO2 SLP117 T02780228
KNEW 230253Z AUTO 23010KT 10SM CLR 28/23 A2990 RMK AO2 SLP119 T02830228 52016
KNEW 230153Z 23014KT 10SM CLR 29/23 A2989 RMK AO2 SLP115 T02940233
KNEW 230053Z 23015KT 10SM CLR 30/22 A2987 RMK AO2 SLP107 T03000222
KNEW 222353Z 23014KT 10SM CLR 31/22 A2986 RMK AO2 SLP103 T03110222 10333 20311 58008
KNEW 222253Z 23013KT 10SM CLR 32/22 A2986 RMK AO2 SLP106 T03220222
KNEW 222153Z 22012KT 10SM SCT046 32/23 A2987 RMK AO2 SLP109 T03220228
KNEW 222053Z AUTO 23013KT 10SM FEW049 32/23 A2988 RMK AO2 SLP112 T03220228 58018
KNEW 221953Z 25010KT 10SM 33/23 A2989 RMK AO2 SLP117 T03280233
KNEW 221853Z 25013KT 10SM 33/23 A2992 RMK AO2 SLP126 T03280233 $
KNEW 221753Z 22015KT 10SM SCT045 32/23 A2993 RMK AO2 SLP130 T03220233 10328 20272 58002
KNEW 221653Z 23013KT 10SM SCT041 32/23 A2995 RMK AO2 SLP134 T03170233
KNEW 221553Z 23011KT 10SM FEW029 FEW035 31/24 A2995 RMK AO2 SLP136 T03060239
KNEW 221453Z 23010KT 10SM SCT025 BKN032 30/24 A2994 RMK AO2 SLP132 T03000239 51002
KNEW 221353Z 23013KT 9SM SCT019 29/24 A2994 RMK AO2 SLP132 T02890244
KNEW 221253Z 24011KT 8SM CLR 28/24 A2994 RMK AO2 SLP132 T02780244
KNEW 221153Z 23009KT 7SM CLR 27/24 A2994 RMK AO2 SLP130 T02720244 10272 20267 51009 $
KNEW 221053Z AUTO 23009KT 7SM CLR 27/24 A2993 RMK AO2 SLP128 T02670239 $
KNEW 220953Z AUTO 24009KT 9SM CLR 27/24 A2992 RMK AO2 SLP126 T02670239 $
KNEW 220853Z AUTO 23011KT 9SM CLR 27/24 A2991 RMK AO2 SLP121 T02670239 55002 $
KNEW 220753Z AUTO 22010KT 9SM CLR 27/24 A2990 RMK AO2 SLP119 T02720239 $
KNEW 220653Z AUTO 23012KT 9SM CLR 27/23 A2990 RMK AO2 SLP120 T02720233 $
KNEW 220628Z AUTO 23010KT 9SM SCT023 27/24 A2991 RMK AO2 T02720239 $
KNEW 220608Z AUTO 23010KT 9SM BKN023 27/23 A2991 RMK AO2 T02720233 $
KNEW 220553Z AUTO 23009KT 9SM SCT022 28/23 A2991 RMK AO2 SLP123 T02780233 10306 20278 403280261 58002 $
KNEW 220453Z AUTO 24011KT 10SM CLR 28/23 A2992 RMK AO2 SLP126 T02780233 $
KNEW 220353Z AUTO 22012KT 10SM CLR 28/23 A2992 RMK AO2 SLP125 T02830228 $
KNEW 220253Z AUTO 23009KT 10SM CLR 29/23 A2992 RMK AO2 SLP125 T02890228 53009 $
KNEW 220153Z AUTO 22011KT 10SM CLR 29/23 A2991 RMK AO2 SLP121 T02940228 $
KNEW 220053Z AUTO 22010KT 9SM CLR 30/23 A2990 RMK AO2 SLP117 T03000228 $
KNEW 212353Z AUTO 28009KT 10SM CLR 31/23 A2989 RMK AO2 SLP116 T03060228 10328 20306 55003 $